Terminal Aerodrome Forecast
Issued by NWS

Home | Current Version | Previous Version | Text Only | Print | Product List | Glossary On
Versions: 1 2 3 4 5 6 7 8 9 10 11 12 13
000
FTUS42 TJSJ 241600 AAA
TAFKPK
TAF AMD
TKPK 241609Z 2416/2512 07015G25KT P6SM VCSH SCT020 BKN045
      TEMPO 2418/2422 5SM TSRA BKN018CB
     FM250000 08014KT P6SM VCSH FEW018=

USA.gov is the U.S. government's official web portal to all federal, state and local government web resources and services.